createdAt,value
2022-09-20T00:01:08.131Z,12.43
2022-09-20T00:03:36.892Z,12.37
2022-09-20T00:06:05.275Z,12.33
2022-09-20T00:08:32.066Z,12.23
2022-09-20T00:11:03.789Z,12.13
2022-09-20T00:13:31.111Z,12.07
2022-09-20T00:15:58.017Z,12.02
2022-09-20T00:18:25.211Z,11.94
2022-09-20T00:20:52.403Z,11.95
2022-09-20T00:23:19.833Z,11.92
2022-09-20T00:26:00.679Z,11.91
2022-09-20T00:28:28.945Z,11.91
2022-09-20T00:30:56.523Z,11.97
2022-09-20T00:33:45.443Z,11.91
2022-09-20T00:36:12.470Z,12.00
2022-09-20T00:38:39.330Z,11.91
2022-09-20T00:41:06.007Z,11.82
2022-09-20T00:43:41.438Z,11.78
2022-09-20T00:46:42.765Z,11.88
2022-09-20T00:49:25.749Z,11.96
2022-09-20T00:51:57.524Z,12.05
2022-09-20T00:54:26.422Z,12.09
2022-09-20T00:56:53.422Z,12.12
2022-09-20T00:59:28.309Z,12.15
2022-09-20T01:02:05.623Z,12.17
2022-09-20T01:04:35.456Z,12.27
2022-09-20T01:07:05.945Z,12.41
2022-09-20T01:09:32.659Z,12.50
2022-09-20T01:12:03.706Z,12.50
2022-09-20T01:14:30.877Z,12.53
2022-09-20T01:17:02.651Z,12.57
2022-09-20T01:19:48.653Z,12.61
2022-09-20T01:22:27.506Z,12.70
2022-09-20T01:25:17.921Z,12.70
2022-09-20T01:27:59.194Z,12.69
2022-09-20T01:30:36.688Z,12.75
2022-09-20T01:33:28.525Z,12.78
2022-09-20T01:35:58.683Z,12.79
2022-09-20T01:38:45.467Z,12.85
2022-09-20T01:41:26.038Z,12.91
2022-09-20T01:43:58.816Z,12.93
2022-09-20T01:46:31.468Z,12.91
2022-09-20T01:49:16.490Z,13.03
2022-09-20T01:52:12.265Z,13.08
2022-09-20T01:55:06.838Z,13.12
2022-09-20T01:57:58.389Z,13.13
2022-09-20T02:00:37.075Z,13.12
2022-09-20T02:03:23.746Z,13.04
2022-09-20T02:06:12.786Z,13.06
2022-09-20T02:09:21.607Z,13.11
2022-09-20T02:11:59.225Z,13.13
2022-09-20T02:14:35.264Z,13.05
2022-09-20T02:17:35.990Z,13.03
2022-09-20T02:20:30.674Z,13.04
2022-09-20T02:23:22.455Z,12.98
2022-09-20T02:26:08.566Z,13.02
2022-09-20T02:28:53.642Z,13.15
2022-09-20T02:31:32.532Z,13.19
2022-09-20T02:34:16.216Z,13.22
2022-09-20T02:37:01.711Z,13.29
2022-09-20T02:39:36.719Z,13.22
2022-09-20T02:42:17.320Z,13.09
2022-09-20T02:45:22.140Z,13.06
2022-09-20T02:47:48.729Z,12.98
2022-09-20T02:50:34.148Z,12.92
2022-09-20T02:53:26.967Z,12.89
2022-09-20T02:56:34.962Z,12.86
2022-09-20T02:59:05.673Z,12.86
2022-09-20T03:01:56.294Z,12.88
2022-09-20T03:04:48.306Z,12.87
2022-09-20T03:07:20.818Z,12.83
2022-09-20T03:10:14.201Z,12.77
2022-09-20T03:13:02.743Z,12.72
2022-09-20T03:15:54.341Z,12.72
2022-09-20T03:19:03.034Z,12.82
2022-09-20T03:21:50.957Z,12.90
2022-09-20T03:25:04.529Z,12.99
2022-09-20T03:27:44.655Z,13.10
2022-09-20T03:30:26.272Z,13.10
2022-09-20T03:33:15.881Z,13.13
2022-09-20T03:36:01.258Z,13.14
2022-09-20T03:39:01.755Z,13.14
2022-09-20T03:41:55.019Z,13.15
2022-09-20T03:44:38.220Z,13.16
2022-09-20T03:47:17.294Z,13.14
2022-09-20T03:50:13.916Z,13.06
2022-09-20T03:53:05.158Z,13.00
2022-09-20T03:55:53.728Z,12.97
2022-09-20T03:58:42.234Z,12.93
2022-09-20T04:01:28.120Z,12.96
2022-09-20T04:04:12.420Z,12.95
2022-09-20T04:06:38.934Z,12.92
2022-09-20T04:09:25.939Z,12.95
2022-09-20T04:12:11.207Z,12.94
2022-09-20T04:14:41.522Z,12.96
2022-09-20T04:17:39.509Z,12.91
2022-09-20T04:20:13.803Z,12.89
2022-09-20T04:22:44.638Z,12.83
2022-09-20T04:25:19.326Z,12.78
2022-09-20T04:27:58.598Z,12.68
2022-09-20T04:30:30.194Z,12.63
2022-09-20T04:33:13.068Z,12.54
2022-09-20T04:36:30.280Z,12.43
2022-09-20T04:39:25.508Z,12.33
2022-09-20T04:42:30.098Z,12.24
2022-09-20T04:45:09.785Z,12.14
2022-09-20T04:48:06.712Z,12.07
2022-09-20T04:51:07.119Z,12.01
2022-09-20T04:53:55.006Z,12.11
2022-09-20T04:56:38.150Z,12.12
2022-09-20T04:59:10.312Z,12.16
2022-09-20T05:01:55.911Z,12.28
2022-09-20T05:04:38.329Z,12.33
2022-09-20T05:07:23.065Z,12.43
2022-09-20T05:10:27.072Z,12.59
2022-09-20T05:13:00.701Z,12.64
2022-09-20T05:15:50.824Z,12.74
2022-09-20T05:18:26.749Z,12.75
2022-09-20T05:21:19.971Z,12.74
2022-09-20T05:23:52.917Z,12.78
2022-09-20T05:26:46.919Z,12.71
2022-09-20T05:29:28.986Z,12.82
2022-09-20T05:32:11.905Z,12.85
2022-09-20T05:35:01.961Z,12.95
2022-09-20T05:37:44.124Z,12.87
2022-09-20T05:40:22.284Z,12.90
2022-09-20T05:43:00.489Z,12.96
2022-09-20T05:46:04.876Z,12.92
2022-09-20T05:49:03.860Z,12.99
2022-09-20T05:51:47.733Z,12.95
2022-09-20T05:54:17.442Z,12.99
2022-09-20T05:57:21.255Z,13.00
2022-09-20T06:00:14.104Z,12.96
2022-09-20T06:02:57.133Z,12.99
2022-09-20T06:05:58.950Z,13.00
2022-09-20T06:08:43.782Z,12.98
2022-09-20T06:11:29.190Z,13.00
2022-09-20T06:14:27.862Z,13.06
2022-09-20T06:17:33.065Z,13.03
2022-09-20T06:20:16.018Z,13.11
2022-09-20T06:22:49.810Z,13.00
2022-09-20T06:25:23.650Z,13.22
2022-09-20T06:27:52.575Z,13.23
2022-09-20T06:30:34.778Z,13.31
2022-09-20T06:33:13.081Z,13.33
2022-09-20T06:36:23.665Z,13.32
2022-09-20T06:39:44.837Z,13.43
2022-09-20T06:42:11.743Z,13.38
2022-09-20T06:44:41.220Z,13.42
2022-09-20T06:47:14.266Z,13.46
2022-09-20T06:49:42.348Z,13.53
2022-09-20T06:52:14.568Z,13.68
2022-09-20T06:54:45.622Z,13.71
2022-09-20T06:57:15.956Z,13.93
2022-09-20T06:59:42.521Z,14.00
2022-09-20T07:02:09.059Z,14.24
2022-09-20T07:04:35.946Z,14.30
2022-09-20T07:07:09.121Z,14.46
2022-09-20T07:09:36.532Z,14.64
2022-09-20T07:12:03.313Z,14.77
2022-09-20T07:14:29.996Z,14.95
2022-09-20T07:16:56.826Z,15.09
2022-09-20T07:19:23.463Z,15.16
2022-09-20T07:21:50.266Z,15.20
2022-09-20T07:24:17.784Z,15.09
2022-09-20T07:27:03.517Z,15.23
2022-09-20T07:29:32.863Z,15.38
2022-09-20T07:31:59.550Z,15.53
2022-09-20T07:34:27.282Z,15.36
2022-09-20T07:36:53.960Z,15.30
2022-09-20T07:39:20.673Z,15.52
2022-09-20T07:41:48.642Z,15.74
2022-09-20T07:44:21.592Z,15.94
2022-09-20T07:46:59.378Z,16.13
2022-09-20T07:49:29.922Z,16.09
2022-09-20T07:51:56.685Z,16.04
2022-09-20T07:54:23.286Z,15.97
2022-09-20T07:56:50.145Z,16.20
2022-09-20T07:59:16.998Z,16.43
2022-09-20T08:01:43.911Z,16.54
2022-09-20T08:04:11.261Z,16.59
2022-09-20T08:06:44.774Z,16.57
2022-09-20T08:09:12.211Z,16.63
2022-09-20T08:11:40.512Z,16.65
2022-09-20T08:14:09.037Z,16.38
2022-09-20T08:16:42.009Z,16.30
2022-09-20T08:19:09.417Z,16.02
2022-09-20T08:21:38.328Z,15.82
2022-09-20T08:24:05.229Z,15.61
2022-09-20T08:26:32.317Z,15.48
2022-09-20T08:29:00.181Z,15.52
2022-09-20T08:31:30.674Z,15.60
2022-09-20T08:33:59.176Z,15.66
2022-09-20T08:36:27.567Z,15.54
2022-09-20T08:41:59.313Z,15.60
2022-09-20T08:44:35.191Z,15.82
2022-09-20T08:47:25.989Z,15.73
2022-09-20T08:49:57.710Z,15.68
2022-09-20T08:52:36.184Z,15.76
2022-09-20T08:55:39.676Z,15.73
2022-09-20T08:58:11.980Z,15.90
2022-09-20T09:00:42.968Z,15.90
2022-09-20T09:03:17.179Z,15.93
2022-09-20T09:05:48.328Z,15.85
2022-09-20T09:08:18.553Z,16.11
2022-09-20T09:10:53.095Z,16.26
2022-09-20T09:13:53.200Z,16.51
2022-09-20T09:16:28.756Z,16.51
2022-09-20T09:19:33.378Z,16.61
2022-09-20T09:22:03.310Z,16.72
2022-09-20T09:24:33.328Z,16.66
2022-09-20T09:27:19.569Z,16.63
2022-09-20T09:30:19.690Z,16.67
2022-09-20T09:32:46.648Z,16.71
2022-09-20T09:35:24.640Z,16.62
2022-09-20T09:38:02.302Z,16.70
2022-09-20T09:40:31.811Z,16.90
2022-09-20T09:43:02.643Z,17.04
2022-09-20T09:45:38.643Z,17.14
2022-09-20T09:48:22.614Z,17.44
2022-09-20T09:50:49.315Z,17.64
2022-09-20T09:53:20.695Z,17.45
2022-09-20T09:56:26.941Z,17.34
2022-09-20T09:59:02.516Z,17.40
2022-09-20T10:01:47.903Z,17.18
2022-09-20T10:04:35.730Z,16.94
2022-09-20T10:07:33.643Z,16.88
2022-09-20T10:10:28.086Z,16.89
2022-09-20T10:13:13.397Z,16.96
2022-09-20T10:15:56.388Z,16.98
2022-09-20T10:18:33.883Z,17.12
2022-09-20T10:21:18.598Z,17.21
2022-09-20T10:24:04.942Z,17.08
2022-09-20T10:26:50.669Z,17.13
2022-09-20T10:29:33.791Z,16.99
2022-09-20T10:32:13.887Z,16.73
2022-09-20T10:34:41.640Z,16.66
2022-09-20T10:37:24.091Z,16.70
2022-09-20T10:40:07.170Z,16.97
2022-09-20T10:43:05.109Z,17.38
2022-09-20T10:46:14.033Z,17.63
2022-09-20T10:48:47.438Z,17.49
2022-09-20T10:51:34.083Z,17.55
2022-09-20T10:54:40.049Z,17.86
2022-09-20T10:57:46.850Z,18.17
2022-09-20T11:00:25.536Z,18.33
2022-09-20T11:03:10.796Z,18.17
2022-09-20T11:06:12.650Z,17.79
2022-09-20T11:08:42.806Z,17.91
2022-09-20T11:11:34.709Z,18.09
2022-09-20T11:14:19.377Z,18.39
2022-09-20T11:17:02.324Z,19.07
2022-09-20T11:19:48.474Z,19.22
2022-09-20T11:22:21.628Z,18.75
2022-09-20T11:24:53.945Z,18.67
2022-09-20T11:27:29.525Z,18.62
2022-09-20T11:30:16.803Z,18.50
2022-09-20T11:33:05.738Z,18.54
2022-09-20T11:35:46.306Z,18.36
2022-09-20T11:38:22.310Z,18.26
2022-09-20T11:41:08.726Z,18.04
2022-09-20T11:43:42.696Z,18.06
2022-09-20T11:46:13.813Z,18.08
2022-09-20T11:48:44.550Z,18.12
2022-09-20T11:51:20.231Z,18.21
2022-09-20T11:53:55.934Z,18.01
2022-09-20T11:56:27.679Z,17.97
2022-09-20T11:58:57.246Z,18.01
2022-09-20T12:01:29.028Z,18.10
2022-09-20T12:04:34.767Z,17.76
2022-09-20T12:07:18.315Z,17.87
2022-09-20T12:10:06.362Z,18.09
2022-09-20T12:12:41.592Z,18.04
2022-09-20T12:15:36.971Z,18.14
2022-09-20T12:18:34.546Z,18.00
2022-09-20T12:21:16.178Z,17.80
2022-09-20T12:23:45.334Z,17.89
2022-09-20T12:26:21.507Z,18.12
2022-09-20T12:28:51.034Z,18.14
2022-09-20T12:31:29.651Z,18.21
2022-09-20T12:34:10.291Z,18.08
2022-09-20T12:36:39.213Z,18.02
2022-09-20T12:39:10.968Z,17.75
2022-09-20T12:41:52.978Z,17.75
2022-09-20T12:44:41.842Z,17.34
2022-09-20T12:47:35.618Z,17.56
2022-09-20T12:50:34.135Z,17.49
2022-09-20T12:53:04.539Z,17.43
2022-09-20T12:55:33.941Z,17.45
2022-09-20T12:58:18.601Z,17.52
2022-09-20T13:00:59.288Z,17.34
2022-09-20T13:03:38.509Z,17.26
2022-09-20T13:06:12.174Z,17.14
2022-09-20T13:08:48.276Z,17.11
2022-09-20T13:11:22.396Z,16.95
2022-09-20T13:14:18.930Z,16.82
2022-09-20T13:16:54.590Z,16.84
2022-09-20T13:19:39.260Z,16.75
2022-09-20T13:22:16.242Z,16.90
2022-09-20T13:24:51.769Z,16.95
2022-09-20T13:27:23.831Z,17.04
2022-09-20T13:29:50.992Z,17.11
2022-09-20T13:32:28.981Z,17.54
2022-09-20T13:35:14.895Z,17.98
2022-09-20T13:38:00.159Z,18.35
2022-09-20T13:40:34.353Z,19.00
2022-09-20T13:43:22.533Z,19.39
2022-09-20T13:45:56.193Z,19.67
2022-09-20T13:48:28.004Z,19.46
2022-09-20T13:51:04.324Z,18.86
2022-09-20T13:53:46.314Z,18.59
2022-09-20T13:56:29.759Z,18.36
2022-09-20T13:58:59.028Z,18.36
2022-09-20T14:01:32.945Z,18.31
2022-09-20T14:04:05.218Z,18.38
2022-09-20T14:06:32.373Z,18.36
2022-09-20T14:09:08.347Z,18.42
2022-09-20T14:11:38.468Z,18.54
2022-09-20T14:14:07.109Z,18.48
2022-09-20T14:16:39.655Z,18.45
2022-09-20T14:19:09.691Z,18.45
2022-09-20T14:21:38.221Z,18.35
2022-09-20T14:24:27.523Z,18.30
2022-09-20T14:27:20.887Z,18.24
2022-09-20T14:29:50.751Z,17.99
2022-09-20T14:32:17.364Z,18.15
2022-09-20T14:34:46.764Z,18.20
2022-09-20T14:37:36.767Z,18.31
2022-09-20T14:40:16.609Z,18.27
2022-09-20T14:42:48.439Z,18.20
2022-09-20T14:45:28.082Z,18.10
2022-09-20T14:48:10.457Z,18.29
2022-09-20T14:50:39.905Z,18.33
2022-09-20T14:53:12.635Z,18.23
2022-09-20T14:56:25.519Z,18.14
2022-09-20T14:59:19.208Z,18.34
2022-09-20T15:02:10.350Z,18.11
2022-09-20T15:04:38.043Z,18.06
2022-09-20T15:07:07.063Z,18.08
2022-09-20T15:09:35.239Z,18.14
2022-09-20T15:12:12.134Z,18.29
2022-09-20T15:14:40.646Z,18.30
2022-09-20T15:17:18.117Z,18.17
2022-09-20T15:19:46.164Z,18.05
2022-09-20T15:22:14.129Z,17.77
2022-09-20T15:24:41.578Z,17.78
2022-09-20T15:27:09.366Z,17.65
2022-09-20T15:29:35.996Z,17.62
2022-09-20T15:32:04.506Z,17.61
2022-09-20T15:34:32.123Z,17.61
2022-09-20T15:36:58.811Z,17.53
2022-09-20T15:39:25.926Z,17.52
2022-09-20T15:41:53.459Z,17.46
2022-09-20T15:44:20.700Z,17.44
2022-09-20T15:46:50.084Z,17.38
2022-09-20T15:49:16.921Z,17.31
2022-09-20T15:51:43.586Z,17.30
2022-09-20T15:54:13.168Z,17.14
2022-09-20T15:56:40.453Z,16.98
2022-09-20T15:59:09.347Z,17.08
2022-09-20T16:01:41.776Z,17.10
2022-09-20T16:04:19.242Z,17.01
2022-09-20T16:06:49.438Z,17.03
2022-09-20T16:09:19.508Z,17.02
2022-09-20T16:11:48.231Z,16.97
2022-09-20T16:14:15.443Z,16.81
2022-09-20T16:16:42.091Z,16.81
2022-09-20T16:19:19.617Z,16.76
2022-09-20T16:21:58.294Z,16.88
2022-09-20T16:24:28.557Z,16.75
2022-09-20T16:26:55.447Z,16.80
2022-09-20T16:29:22.398Z,16.78
2022-09-20T16:31:50.334Z,16.69
2022-09-20T16:34:21.988Z,16.65
2022-09-20T16:36:54.202Z,16.64
2022-09-20T16:39:27.661Z,16.64
2022-09-20T16:41:57.285Z,16.51
2022-09-20T16:44:24.581Z,16.48
2022-09-20T16:46:51.484Z,16.40
2022-09-20T16:49:18.467Z,16.33
2022-09-20T16:51:46.337Z,16.27
2022-09-20T16:54:15.455Z,16.27
2022-09-20T16:56:47.526Z,16.24
2022-09-20T16:59:16.302Z,16.18
2022-09-20T17:01:43.864Z,16.22
2022-09-20T17:04:13.449Z,16.13
2022-09-20T17:06:41.799Z,16.05
2022-09-20T17:09:09.023Z,15.94
2022-09-20T17:11:39.277Z,15.91
2022-09-20T17:14:06.409Z,15.79
2022-09-20T17:16:39.846Z,15.57
2022-09-20T17:19:12.586Z,15.56
2022-09-20T17:21:45.178Z,15.47
2022-09-20T17:24:13.741Z,15.21
2022-09-20T17:26:44.435Z,15.24
2022-09-20T17:29:16.993Z,15.22
2022-09-20T17:31:54.481Z,15.40
2022-09-20T17:34:23.877Z,15.36
2022-09-20T17:36:50.880Z,15.32
2022-09-20T17:39:18.316Z,15.25
2022-09-20T17:41:47.113Z,15.16
2022-09-20T17:44:14.622Z,15.17
2022-09-20T17:46:49.872Z,15.25
2022-09-20T17:49:21.959Z,15.23
2022-09-20T17:51:51.113Z,15.15
2022-09-20T17:54:19.143Z,15.07
2022-09-20T17:56:48.737Z,15.15
2022-09-20T17:59:19.008Z,15.15
2022-09-20T18:01:47.845Z,15.05
2022-09-20T18:04:14.629Z,14.87
2022-09-20T18:06:45.134Z,14.85
2022-09-20T18:09:15.488Z,14.97
2022-09-20T18:11:49.855Z,14.96
2022-09-20T18:14:25.025Z,14.83
2022-09-20T18:16:53.182Z,14.74
2022-09-20T18:19:21.415Z,14.74
2022-09-20T18:21:48.557Z,14.74
2022-09-20T18:24:15.200Z,14.82
2022-09-20T18:26:42.073Z,14.82
2022-09-20T18:29:13.891Z,14.71
2022-09-20T18:31:44.712Z,14.58
2022-09-20T18:34:20.282Z,14.56
2022-09-20T18:36:52.525Z,14.59
2022-09-20T18:39:27.583Z,14.56
2022-09-20T18:41:55.119Z,14.61
2022-09-20T18:44:23.068Z,14.64
2022-09-20T18:46:54.159Z,14.69
2022-09-20T18:49:21.698Z,14.71
2022-09-20T18:51:48.861Z,14.71
2022-09-20T18:54:17.705Z,14.74
2022-09-20T18:56:46.730Z,14.64
2022-09-20T18:59:32.295Z,14.63
2022-09-20T19:02:35.847Z,14.73
2022-09-20T19:05:28.224Z,14.79
2022-09-20T19:08:08.792Z,14.78
2022-09-20T19:10:56.130Z,14.83
2022-09-20T19:13:27.302Z,14.82
2022-09-20T19:16:11.733Z,14.84
2022-09-20T19:18:50.724Z,14.84
2022-09-20T19:21:31.027Z,14.73
2022-09-20T19:24:22.487Z,14.75
2022-09-20T19:26:49.487Z,14.79
2022-09-20T19:29:22.410Z,14.71
2022-09-20T19:31:51.331Z,14.72
2022-09-20T19:34:21.874Z,14.76
2022-09-20T19:37:18.843Z,14.75
2022-09-20T19:39:58.469Z,14.72
2022-09-20T19:42:42.405Z,14.82
2022-09-20T19:45:24.427Z,14.79
2022-09-20T19:47:58.075Z,14.81
2022-09-20T19:50:28.052Z,14.78
2022-09-20T19:52:57.885Z,14.81
2022-09-20T19:55:25.132Z,14.80
2022-09-20T19:57:52.127Z,14.76
2022-09-20T20:00:21.251Z,14.78
2022-09-20T20:02:48.909Z,14.75
2022-09-20T20:05:21.074Z,14.74
2022-09-20T20:08:14.422Z,14.67
2022-09-20T20:11:00.092Z,14.61
2022-09-20T20:13:55.526Z,14.54
2022-09-20T20:16:33.557Z,14.52
2022-09-20T20:19:31.808Z,14.43
2022-09-20T20:22:29.936Z,14.39
2022-09-20T20:24:57.399Z,14.39
2022-09-20T20:27:25.980Z,14.26
2022-09-20T20:29:52.614Z,14.30
2022-09-20T20:32:19.332Z,14.32
2022-09-20T20:34:46.885Z,14.25
2022-09-20T20:37:13.865Z,14.21
2022-09-20T20:39:40.444Z,14.26
2022-09-20T20:42:08.419Z,14.16
2022-09-20T20:44:35.056Z,14.13
2022-09-20T20:47:05.874Z,14.13
2022-09-20T20:49:32.972Z,14.08
2022-09-20T20:52:04.851Z,14.09
2022-09-20T20:54:32.591Z,14.12
2022-09-20T20:56:59.448Z,14.08
2022-09-20T20:59:26.437Z,14.10
2022-09-20T21:01:53.594Z,14.05
2022-09-20T21:04:21.439Z,13.98
2022-09-20T21:06:47.966Z,14.12
2022-09-20T21:09:14.459Z,14.16
2022-09-20T21:11:44.109Z,14.15
2022-09-20T21:14:12.651Z,14.15
2022-09-20T21:16:45.101Z,14.13
2022-09-20T21:19:15.281Z,14.15
2022-09-20T21:21:43.722Z,14.15
2022-09-20T21:24:17.068Z,14.16
2022-09-20T21:26:44.694Z,14.21
2022-09-20T21:29:12.262Z,14.22
2022-09-20T21:31:41.214Z,14.26
2022-09-20T21:34:09.222Z,14.22
2022-09-20T21:36:37.526Z,14.15
2022-09-20T21:39:05.844Z,14.12
2022-09-20T21:41:34.745Z,14.14
2022-09-20T21:44:03.353Z,14.12
2022-09-20T21:46:31.730Z,14.00
2022-09-20T21:49:00.844Z,14.03
2022-09-20T21:51:31.425Z,13.98
2022-09-20T21:54:01.333Z,13.90
2022-09-20T21:56:31.266Z,13.89
2022-09-20T21:58:58.566Z,13.81
2022-09-20T22:01:27.313Z,13.75
2022-09-20T22:04:01.334Z,13.77
2022-09-20T22:06:30.274Z,13.88
2022-09-20T22:09:01.510Z,13.91
2022-09-20T22:11:34.817Z,13.97
2022-09-20T22:14:02.085Z,13.91
2022-09-20T22:16:37.888Z,13.97
2022-09-20T22:19:07.786Z,13.79
2022-09-20T22:21:37.252Z,13.72
2022-09-20T22:24:07.797Z,13.63
2022-09-20T22:26:40.614Z,13.63
2022-09-20T22:29:07.839Z,13.58
2022-09-20T22:31:37.551Z,13.57
2022-09-20T22:34:07.303Z,13.59
2022-09-20T22:36:36.329Z,13.52
2022-09-20T22:39:05.428Z,13.46
2022-09-20T22:41:32.492Z,13.33
2022-09-20T22:44:02.819Z,13.32
2022-09-20T22:46:31.115Z,13.24
2022-09-20T22:48:58.520Z,13.17
2022-09-20T22:51:28.204Z,13.20
2022-09-20T22:53:55.597Z,13.17
2022-09-20T22:56:29.814Z,13.04
2022-09-20T22:59:05.003Z,12.89
2022-09-20T23:01:34.679Z,12.71
2022-09-20T23:04:08.941Z,12.54
2022-09-20T23:07:02.361Z,12.40
2022-09-20T23:09:29.103Z,12.38
2022-09-20T23:11:56.202Z,12.55
2022-09-20T23:14:23.441Z,12.80
2022-09-20T23:16:50.566Z,13.02
2022-09-20T23:19:18.045Z,13.01
2022-09-20T23:21:45.270Z,13.08
2022-09-20T23:24:14.310Z,13.06
2022-09-20T23:26:43.049Z,13.02
2022-09-20T23:29:15.289Z,12.95
2022-09-20T23:31:46.034Z,12.86
2022-09-20T23:34:14.387Z,12.68
2022-09-20T23:36:41.615Z,12.46
2022-09-20T23:39:09.897Z,12.31
2022-09-20T23:41:37.367Z,12.14
2022-09-20T23:44:09.869Z,12.00
2022-09-20T23:46:37.499Z,11.83
2022-09-20T23:49:04.464Z,11.76
2022-09-20T23:51:32.656Z,11.84
2022-09-20T23:53:59.566Z,11.84
2022-09-20T23:56:27.463Z,11.80
2022-09-20T23:58:54.567Z,11.86
